Time;durP1;ratioP1;P1;durP2;ratioP2;P2;SDS_P1;SDS_P2;PMS_P1;PMS_P2;Temp;Humidity;BMP_temperature;BMP_pressure;BME280_temperature;BME280_humidity;BME280_pressure;Samples;Min_cycle;Max_cycle;Signal;HPM_P1;HPM_P2
2023/03/09 00:00:57;;;;;;;48.33;16.83;;;12.20;54.10;;;;;;5071068;28;20197;-89
2023/03/09 00:03:24;;;;;;;76.20;19.23;;;12.20;54.10;;;;;;5069501;28;20638;-89
2023/03/09 00:05:56;;;;;;;44.13;15.93;;;12.20;54.10;;;;;;5067652;28;20198;-93
2023/03/09 00:08:23;;;;;;;49.30;16.37;;;12.20;54.10;;;;;;5069040;28;20233;-92
2023/03/09 00:10:52;;;;;;;42.27;16.40;;;12.20;54.10;;;;;;5068858;28;20201;-92
2023/03/09 00:13:23;;;;;;;47.63;15.87;;;12.20;54.10;;;;;;5070052;28;20206;-89
2023/03/09 00:15:50;;;;;;;67.10;17.93;;;12.20;54.10;;;;;;5068677;28;20280;-89
2023/03/09 00:18:18;;;;;;;46.77;15.47;;;12.20;54.10;;;;;;5069979;28;20203;-91
2023/03/09 00:20:47;;;;;;;46.57;15.63;;;12.20;54.70;;;;;;5067282;28;20223;-92
2023/03/09 00:23:17;;;;;;;47.20;16.13;;;12.20;54.10;;;;;;5055560;28;20206;-89
2023/03/09 00:25:45;;;;;;;50.83;17.00;;;12.20;54.10;;;;;;5068596;28;20757;-91
2023/03/09 00:28:12;;;;;;;53.67;15.80;;;12.20;54.10;;;;;;5069244;28;20671;-94
2023/03/09 00:30:40;;;;;;;55.50;15.97;;;12.10;54.00;;;;;;5069394;28;20742;-88
2023/03/09 00:33:07;;;;;;;52.17;15.87;;;12.20;54.10;;;;;;5068006;28;20854;-93
2023/03/09 00:35:36;;;;;;;49.20;15.40;;;12.20;54.10;;;;;;5068560;28;20205;-89
2023/03/09 00:38:03;;;;;;;45.90;14.87;;;12.20;54.10;;;;;;5065824;28;20193;-89
2023/03/09 00:40:31;;;;;;;72.53;17.13;;;12.20;54.10;;;;;;5067325;28;20723;-89
2023/03/09 00:43:00;;;;;;;43.00;14.90;;;12.20;54.10;;;;;;5069444;28;20210;-93
2023/03/09 00:45:28;;;;;;;54.67;15.50;;;12.20;54.10;;;;;;5071240;28;20381;-89
2023/03/09 00:47:58;;;;;;;45.83;15.07;;;12.20;54.10;;;;;;5066382;28;20245;-89
2023/03/09 00:50:26;;;;;;;75.23;17.80;;;12.20;54.10;;;;;;5067842;28;20212;-92
2023/03/09 00:52:53;;;;;;;50.03;15.40;;;12.20;54.10;;;;;;5049865;28;20222;-90
2023/03/09 00:55:20;;;;;;;54.77;15.80;;;12.20;54.10;;;;;;5066183;28;20207;-89
2023/03/09 00:57:47;;;;;;;47.97;15.00;;;12.20;54.70;;;;;;5069437;28;20201;-92
2023/03/09 01:00:14;;;;;;;50.43;15.60;;;12.20;54.80;;;;;;5068902;28;20942;-92
2023/03/09 01:02:41;;;;;;;50.83;15.67;;;12.20;54.70;;;;;;5068128;28;20544;-93
2023/03/09 01:05:11;;;;;;;41.80;13.90;;;12.20;54.10;;;;;;5070205;28;20215;-90
2023/03/09 01:07:38;;;;;;;52.70;14.80;;;12.20;54.10;;;;;;5066319;28;20214;-88
2023/03/09 01:10:06;;;;;;;50.60;15.03;;;12.20;54.10;;;;;;5069302;28;20662;-87
2023/03/09 01:12:36;;;;;;;87.53;18.30;;;12.20;54.10;;;;;;5066788;28;20225;-91
2023/03/09 01:15:04;;;;;;;59.97;16.00;;;12.30;54.30;;;;;;5068650;28;20243;-89
2023/03/09 01:17:30;;;;;;;70.30;16.07;;;12.20;54.10;;;;;;5064214;28;20200;-92
2023/03/09 01:19:57;;;;;;;47.60;14.43;;;12.20;54.10;;;;;;5066475;28;20882;-88
2023/03/09 01:22:26;;;;;;;54.40;15.13;;;12.20;54.20;;;;;;5067714;28;20211;-87
2023/03/09 01:24:53;;;;;;;64.27;15.83;;;12.20;54.20;;;;;;5065997;28;20654;-88
2023/03/09 01:27:19;;;;;;;55.17;14.90;;;12.20;54.20;;;;;;5058455;28;20781;-87
2023/03/09 01:29:46;;;;;;;41.87;14.47;;;12.20;54.20;;;;;;5070815;28;20216;-87
2023/03/09 01:32:13;;;;;;;83.00;17.20;;;12.20;54.10;;;;;;5060995;28;20240;-92
2023/03/09 01:34:40;;;;;;;49.67;15.03;;;12.20;54.10;;;;;;5066339;28;20210;-89
2023/03/09 01:37:07;;;;;;;56.13;15.13;;;12.20;54.20;;;;;;5075856;28;20657;-87
2023/03/09 01:39:36;;;;;;;56.47;15.00;;;12.20;54.20;;;;;;5060721;28;20278;-92
2023/03/09 01:42:03;;;;;;;51.00;14.80;;;12.20;54.10;;;;;;5065353;28;20754;-89
2023/03/09 01:44:30;;;;;;;47.73;14.30;;;12.20;54.20;;;;;;5068717;28;20255;-87
2023/03/09 01:46:58;;;;;;;41.63;13.60;;;12.20;54.20;;;;;;5068950;28;20716;-91
2023/03/09 01:49:32;;;;;;;40.17;13.43;;;12.20;54.20;;;;;;5062720;28;20195;-93
2023/03/09 01:52:05;;;;;;;40.13;13.57;;;12.20;54.20;;;;;;5059046;28;20209;-92
2023/03/09 01:54:41;;;;;;;43.87;14.27;;;12.10;54.10;;;;;;5088486;28;20211;-94
2023/03/09 01:57:14;;;;;;;42.27;13.50;;;12.20;54.20;;;;;;5069351;28;20219;-89
2023/03/09 01:59:44;;;;;;;47.90;14.73;;;12.10;54.10;;;;;;5069136;28;20210;-91
2023/03/09 02:02:13;;;;;;;42.60;12.87;;;12.10;54.10;;;;;;5058157;28;20209;-93
2023/03/09 02:04:44;;;;;;;43.00;13.93;;;12.10;54.10;;;;;;5049198;28;20215;-94
2023/03/09 02:07:12;;;;;;;37.20;13.63;;;12.20;54.20;;;;;;5067296;28;20217;-91
2023/03/09 02:09:44;;;;;;;41.40;14.03;;;12.20;54.20;;;;;;5067743;28;20205;-93
2023/03/09 02:12:13;;;;;;;41.33;13.40;;;12.20;54.20;;;;;;5067885;28;20568;-92
2023/03/09 02:14:41;;;;;;;43.40;13.30;;;12.20;54.80;;;;;;5067829;28;20197;-93
2023/03/09 02:17:10;;;;;;;39.17;12.90;;;12.20;54.20;;;;;;5066221;28;20695;-93
2023/03/09 02:19:47;;;;;;;45.13;13.13;;;12.10;54.10;;;;;;5066300;28;20215;-93
2023/03/09 02:22:14;;;;;;;45.20;14.43;;;12.20;54.20;;;;;;5067142;28;20203;-95
2023/03/09 02:24:51;;;;;;;35.53;12.53;;;12.10;54.10;;;;;;5066235;28;20208;-95
2023/03/09 02:27:22;;;;;;;28.57;12.00;;;12.10;54.10;;;;;;5063767;28;20229;-94
2023/03/09 02:29:49;;;;;;;50.10;14.27;;;12.10;54.10;;;;;;5066745;28;20202;-96
2023/03/09 02:32:19;;;;;;;46.53;13.67;;;12.10;54.10;;;;;;5067623;28;20620;-96
2023/03/09 02:34:47;;;;;;;59.10;14.77;;;12.20;54.30;;;;;;5064754;28;20202;-88
2023/03/09 02:37:29;;;;;;;49.53;14.33;;;12.10;54.10;;;;;;5066870;28;20759;-87
2023/03/09 02:39:59;;;;;;;88.47;16.17;;;12.10;54.10;;;;;;5065648;28;20210;-88
2023/03/09 02:42:28;;;;;;;51.47;13.33;;;12.10;54.10;;;;;;5066293;28;20222;-87
2023/03/09 02:44:56;;;;;;;41.00;12.63;;;12.20;54.20;;;;;;5066755;28;20205;-90
2023/03/09 02:47:24;;;;;;;41.60;12.23;;;12.10;54.10;;;;;;5066012;28;20232;-87
2023/03/09 02:49:51;;;;;;;33.70;12.23;;;12.10;54.10;;;;;;5064526;28;20287;-86
2023/03/09 02:52:19;;;;;;;58.97;14.23;;;12.20;54.20;;;;;;5063848;28;20499;-87
2023/03/09 02:54:46;;;;;;;50.97;14.40;;;12.10;54.10;;;;;;5065563;28;20203;-89
2023/03/09 02:57:12;;;;;;;39.10;13.27;;;12.10;54.10;;;;;;5062106;28;20210;-87
2023/03/09 02:59:41;;;;;;;46.30;12.80;;;12.20;54.30;;;;;;5064130;28;20551;-87
2023/03/09 03:02:09;;;;;;;41.97;12.87;;;12.10;54.10;;;;;;5064989;28;20210;-87
2023/03/09 03:04:36;;;;;;;47.60;13.80;;;12.10;54.10;;;;;;5067276;28;20217;-87
2023/03/09 03:07:03;;;;;;;40.67;12.47;;;12.10;54.10;;;;;;5065963;28;20199;-87
2023/03/09 03:09:30;;;;;;;57.80;14.37;;;12.10;54.20;;;;;;5064600;28;22105;-86
2023/03/09 03:11:57;;;;;;;69.87;14.80;;;12.10;54.10;;;;;;5068823;28;20227;-87
2023/03/09 03:14:27;;;;;;;53.60;13.87;;;12.10;54.10;;;;;;5070060;28;20218;-87
2023/03/09 03:16:56;;;;;;;60.97;13.87;;;12.10;54.20;;;;;;5052454;28;20204;-87
2023/03/09 03:19:23;;;;;;;72.40;15.20;;;12.10;54.10;;;;;;5068736;28;20252;-87
2023/03/09 03:21:50;;;;;;;38.33;12.80;;;12.10;54.10;;;;;;5063542;28;20216;-87
2023/03/09 03:24:18;;;;;;;41.80;12.70;;;12.10;54.20;;;;;;5065937;28;20273;-88
2023/03/09 03:26:45;;;;;;;65.17;14.20;;;12.10;54.20;;;;;;5068591;28;20232;-93
2023/03/09 03:29:12;;;;;;;43.30;12.50;;;12.00;54.10;;;;;;5068522;28;20237;-88
2023/03/09 03:31:39;;;;;;;64.80;14.63;;;12.10;54.10;;;;;;5064106;28;20368;-86
2023/03/09 03:34:08;;;;;;;52.40;13.30;;;12.10;54.20;;;;;;5067620;28;20208;-88
2023/03/09 03:36:34;;;;;;;47.77;13.13;;;12.10;54.10;;;;;;5071059;28;20298;-86
2023/03/09 03:39:03;;;;;;;43.40;13.47;;;12.10;54.10;;;;;;5068389;28;20248;-86
2023/03/09 03:41:29;;;;;;;53.70;13.23;;;12.10;54.20;;;;;;5067894;28;20230;-87
2023/03/09 03:43:56;;;;;;;51.67;13.57;;;12.10;54.10;;;;;;5069292;28;20209;-90
2023/03/09 03:46:23;;;;;;;39.47;12.30;;;12.10;54.10;;;;;;5070866;28;20701;-89
2023/03/09 03:48:50;;;;;;;38.47;12.43;;;12.10;54.20;;;;;;5070555;28;21077;-92
2023/03/09 03:51:19;;;;;;;43.47;12.63;;;12.10;54.20;;;;;;5072840;28;20567;-87
2023/03/09 03:53:46;;;;;;;45.67;12.63;;;12.10;54.20;;;;;;5070864;28;20288;-92
2023/03/09 03:56:13;;;;;;;57.90;13.90;;;12.10;54.10;;;;;;5067977;28;20216;-94
2023/03/09 03:58:40;;;;;;;43.63;12.50;;;12.10;54.20;;;;;;5070088;28;20284;-90
2023/03/09 04:01:07;;;;;;;36.40;11.87;;;12.20;54.30;;;;;;5069731;28;20202;-92
2023/03/09 04:03:34;;;;;;;50.13;12.73;;;12.10;54.20;;;;;;5068535;28;20206;-91
2023/03/09 04:06:02;;;;;;;34.60;11.83;;;12.10;54.20;;;;;;5071296;28;20207;-92
2023/03/09 04:08:30;;;;;;;43.97;11.87;;;12.10;54.20;;;;;;5069840;28;20260;-87
2023/03/09 04:10:57;;;;;;;41.50;11.87;;;12.10;54.20;;;;;;5070426;28;20390;-91
2023/03/09 04:13:25;;;;;;;45.10;12.60;;;12.10;54.20;;;;;;5069809;28;20292;-91
2023/03/09 04:15:52;;;;;;;52.07;13.27;;;12.10;54.20;;;;;;5069058;28;20204;-90
2023/03/09 04:18:19;;;;;;;39.23;11.40;;;12.10;54.20;;;;;;5069867;28;20214;-89
2023/03/09 04:20:47;;;;;;;47.27;12.60;;;12.10;54.20;;;;;;5068559;28;20210;-92
2023/03/09 04:23:14;;;;;;;66.13;14.50;;;12.10;54.20;;;;;;5065991;28;20213;-92
2023/03/09 04:25:42;;;;;;;32.23;11.50;;;12.10;54.20;;;;;;5067677;28;20232;-92
2023/03/09 04:28:09;;;;;;;40.60;12.47;;;12.10;54.20;;;;;;5066138;28;20214;-91
2023/03/09 04:30:36;;;;;;;40.23;12.43;;;12.10;54.20;;;;;;5069482;28;20206;-88
2023/03/09 04:33:03;;;;;;;44.80;12.60;;;12.10;54.20;;;;;;5065608;28;20202;-90
2023/03/09 04:35:30;;;;;;;57.30;13.37;;;12.10;54.20;;;;;;5066920;28;20374;-94
2023/03/09 04:37:57;;;;;;;46.37;12.73;;;12.00;54.10;;;;;;5061575;28;20572;-92
2023/03/09 04:40:24;;;;;;;56.77;13.27;;;12.10;54.20;;;;;;5055276;28;20221;-95
2023/03/09 04:42:52;;;;;;;50.47;13.53;;;12.10;54.20;;;;;;5069180;28;20713;-91
2023/03/09 04:45:19;;;;;;;69.10;14.13;;;12.10;54.20;;;;;;5065914;28;20208;-88
2023/03/09 04:47:46;;;;;;;45.97;13.37;;;12.10;54.20;;;;;;5069611;28;20222;-89
2023/03/09 04:50:14;;;;;;;44.00;12.53;;;12.20;54.30;;;;;;5079931;28;20206;-92
2023/03/09 04:52:41;;;;;;;51.33;13.23;;;12.10;54.20;;;;;;5080572;28;20208;-90
2023/03/09 04:55:09;;;;;;;36.40;12.07;;;12.10;54.20;;;;;;5072734;28;20211;-93
2023/03/09 04:57:36;;;;;;;46.33;12.63;;;12.10;54.20;;;;;;5070142;28;20209;-94
2023/03/09 05:00:09;;;;;;;50.17;12.17;;;12.10;54.20;;;;;;5072212;28;20220;-94
2023/03/09 05:02:36;;;;;;;47.43;13.07;;;12.10;54.20;;;;;;5068960;28;20305;-95
2023/03/09 05:05:03;;;;;;;36.47;11.57;;;12.10;54.20;;;;;;5067773;28;20217;-91
2023/03/09 05:07:30;;;;;;;33.73;11.77;;;12.10;54.20;;;;;;5054973;28;20214;-93
2023/03/09 05:09:57;;;;;;;47.20;13.07;;;12.10;54.20;;;;;;5066766;28;20226;-93
2023/03/09 05:12:30;;;;;;;41.27;11.60;;;12.10;54.20;;;;;;5066260;28;20298;-93
2023/03/09 05:14:57;;;;;;;47.43;13.37;;;12.10;54.20;;;;;;5068832;28;20209;-87
2023/03/09 05:17:26;;;;;;;37.60;11.23;;;12.10;54.20;;;;;;5067994;28;20206;-88
2023/03/09 05:19:53;;;;;;;50.47;13.07;;;12.10;54.20;;;;;;5066341;28;20620;-88
2023/03/09 05:22:20;;;;;;;49.60;12.40;;;12.10;54.20;;;;;;5058332;28;20648;-88
2023/03/09 05:24:47;;;;;;;40.93;12.83;;;12.10;54.20;;;;;;5061021;28;20553;-89
2023/03/09 05:27:14;;;;;;;45.87;12.87;;;12.10;54.30;;;;;;5066337;28;20583;-88
2023/03/09 05:29:41;;;;;;;40.67;12.73;;;12.10;54.20;;;;;;5067200;28;20237;-88
2023/03/09 05:32:08;;;;;;;44.83;12.03;;;12.10;54.20;;;;;;5054367;28;20288;-89
2023/03/09 05:34:37;;;;;;;50.40;12.80;;;12.10;54.30;;;;;;5064181;28;20205;-87
2023/03/09 05:37:06;;;;;;;47.20;12.97;;;12.10;54.20;;;;;;5064150;28;20635;-88
2023/03/09 05:39:36;;;;;;;40.60;12.30;;;12.10;54.20;;;;;;5064679;28;20229;-88
2023/03/09 05:42:02;;;;;;;45.63;12.63;;;12.10;54.20;;;;;;5064539;28;20201;-88
2023/03/09 05:44:29;;;;;;;47.87;12.53;;;12.10;54.20;;;;;;5064407;28;20206;-89
2023/03/09 05:46:57;;;;;;;60.77;13.93;;;12.10;54.20;;;;;;5059982;28;20206;-87
2023/03/09 05:49:27;;;;;;;40.83;12.47;;;12.10;54.20;;;;;;5063285;28;20220;-89
2023/03/09 05:51:55;;;;;;;39.13;12.03;;;12.10;54.20;;;;;;5064074;28;20225;-88
2023/03/09 05:54:22;;;;;;;49.53;12.43;;;12.10;54.30;;;;;;5067455;28;20579;-89
2023/03/09 05:56:49;;;;;;;47.03;12.80;;;12.10;54.30;;;;;;5065994;28;20263;-87
2023/03/09 05:59:16;;;;;;;40.43;12.37;;;12.10;54.20;;;;;;5067623;28;20697;-87
2023/03/09 06:01:43;;;;;;;57.53;13.90;;;12.10;54.20;;;;;;5065712;28;20214;-88
2023/03/09 06:04:10;;;;;;;50.47;13.07;;;12.20;54.30;;;;;;5063399;28;20214;-89
2023/03/09 06:06:36;;;;;;;43.60;12.47;;;12.10;54.30;;;;;;5065927;28;20744;-88
2023/03/09 06:09:05;;;;;;;50.27;13.87;;;12.20;54.30;;;;;;5065948;28;20233;-88
2023/03/09 06:11:32;;;;;;;42.10;12.77;;;12.10;54.20;;;;;;5067475;28;20653;-88
2023/03/09 06:13:59;;;;;;;53.70;13.10;;;12.10;54.30;;;;;;5067269;28;20654;-87
2023/03/09 06:16:26;;;;;;;42.00;12.47;;;12.20;54.30;;;;;;5066281;28;20578;-87
2023/03/09 06:18:55;;;;;;;58.47;13.03;;;12.10;54.20;;;;;;5066957;28;20222;-90
2023/03/09 06:21:22;;;;;;;44.37;12.87;;;12.10;54.20;;;;;;5065674;28;20225;-88
2023/03/09 06:23:52;;;;;;;42.17;12.23;;;12.10;54.30;;;;;;5064807;28;20244;-90
2023/03/09 06:26:21;;;;;;;45.73;13.80;;;12.10;54.30;;;;;;5078595;28;20215;-88
2023/03/09 06:28:48;;;;;;;48.57;13.00;;;12.10;54.20;;;;;;5066645;28;20231;-87
2023/03/09 06:31:16;;;;;;;42.80;12.80;;;12.10;54.20;;;;;;5061020;28;20200;-87
2023/03/09 06:33:46;;;;;;;73.80;14.73;;;12.20;54.30;;;;;;5062960;28;20211;-87
2023/03/09 06:36:15;;;;;;;52.57;13.27;;;12.10;54.30;;;;;;5065938;28;20204;-88
2023/03/09 06:38:42;;;;;;;45.87;13.50;;;12.10;54.20;;;;;;5065078;28;20218;-87
2023/03/09 06:41:09;;;;;;;58.17;13.87;;;12.10;54.30;;;;;;5062945;28;20243;-88
2023/03/09 06:43:37;;;;;;;47.73;12.67;;;12.10;54.20;;;;;;5065827;28;20572;-87
2023/03/09 06:46:04;;;;;;;48.53;13.23;;;12.10;54.20;;;;;;5062049;28;20623;-88
2023/03/09 06:48:31;;;;;;;44.27;12.20;;;12.10;54.20;;;;;;5062575;28;20549;-88
2023/03/09 06:50:59;;;;;;;68.23;14.27;;;12.10;54.20;;;;;;5055383;28;20201;-91
2023/03/09 06:53:26;;;;;;;52.23;13.57;;;12.10;54.20;;;;;;5053636;28;20707;-88
2023/03/09 06:55:53;;;;;;;41.13;12.23;;;12.10;54.30;;;;;;5065816;28;20205;-89
2023/03/09 06:58:20;;;;;;;50.47;12.60;;;12.10;54.30;;;;;;5060116;28;20263;-93
2023/03/09 07:00:49;;;;;;;38.20;12.40;;;12.10;54.20;;;;;;5062813;28;20312;-89
2023/03/09 07:03:18;;;;;;;51.40;13.17;;;12.10;54.20;;;;;;5071548;28;20211;-89
2023/03/09 07:05:46;;;;;;;35.17;13.03;;;12.10;54.20;;;;;;5069657;28;20216;-88
2023/03/09 07:08:13;;;;;;;55.50;14.17;;;12.10;54.20;;;;;;5059242;28;20204;-90
2023/03/09 07:10:40;;;;;;;45.57;12.93;;;12.20;54.30;;;;;;5066540;28;20781;-88
2023/03/09 07:13:12;;;;;;;49.53;13.63;;;12.10;54.30;;;;;;5071568;28;20212;-90
2023/03/09 07:15:39;;;;;;;42.27;13.10;;;12.10;54.30;;;;;;5066714;28;20205;-89
2023/03/09 07:18:08;;;;;;;53.50;13.57;;;12.10;54.30;;;;;;5070041;28;20209;-87
2023/03/09 07:20:35;;;;;;;51.80;13.87;;;12.20;54.40;;;;;;5070932;28;20199;-86
2023/03/09 07:23:02;;;;;;;45.57;13.47;;;12.10;54.30;;;;;;5068968;28;20480;-87
2023/03/09 07:25:29;;;;;;;46.30;13.07;;;12.10;54.30;;;;;;5071390;28;20309;-87
2023/03/09 07:27:56;;;;;;;40.90;13.67;;;12.10;54.30;;;;;;5071137;28;20207;-88
2023/03/09 07:30:22;;;;;;;44.60;13.60;;;12.10;54.30;;;;;;5070922;28;20233;-89
2023/03/09 07:32:49;;;;;;;45.60;13.33;;;12.10;54.30;;;;;;5070165;28;20206;-87
2023/03/09 07:35:18;;;;;;;51.33;13.63;;;12.10;54.30;;;;;;5069563;28;20199;-87
2023/03/09 07:37:44;;;;;;;43.07;13.00;;;12.10;54.30;;;;;;5067817;28;20656;-86
2023/03/09 07:40:17;;;;;;;54.67;14.27;;;12.20;54.40;;;;;;5070752;28;20663;-87
2023/03/09 07:42:46;;;;;;;51.67;14.77;;;12.10;54.30;;;;;;5069100;28;20224;-87
2023/03/09 07:45:13;;;;;;;62.20;16.03;;;12.20;54.40;;;;;;5070469;28;20215;-88
2023/03/09 07:47:40;;;;;;;33.07;12.07;;;12.10;54.30;;;;;;5071204;28;20640;-87
2023/03/09 07:50:07;;;;;;;39.10;12.77;;;12.20;54.40;;;;;;5069849;28;20223;-86
2023/03/09 07:52:37;;;;;;;50.33;14.03;;;12.10;54.30;;;;;;5071764;28;20211;-87
2023/03/09 07:55:07;;;;;;;42.37;13.93;;;12.20;54.40;;;;;;5070906;28;20346;-87
2023/03/09 07:57:35;;;;;;;47.50;13.87;;;12.20;54.40;;;;;;5070704;28;20285;-87
2023/03/09 08:00:07;;;;;;;37.80;12.03;;;12.20;54.40;;;;;;5070949;28;20194;-89
2023/03/09 08:02:34;;;;;;;58.17;13.80;;;12.20;54.40;;;;;;5070275;28;20242;-87
2023/03/09 08:05:01;;;;;;;47.07;13.33;;;12.20;54.40;;;;;;5069822;28;20219;-86
2023/03/09 08:07:28;;;;;;;56.37;14.87;;;12.20;54.40;;;;;;5070971;28;21080;-87
2023/03/09 08:09:57;;;;;;;33.93;12.93;;;12.20;54.40;;;;;;5066456;28;20219;-87
2023/03/09 08:12:25;;;;;;;35.80;13.60;;;12.20;54.40;;;;;;5069545;28;20241;-87
2023/03/09 08:14:51;;;;;;;38.40;14.60;;;12.20;54.40;;;;;;5068807;28;20209;-87
2023/03/09 08:17:18;;;;;;;36.43;13.20;;;12.20;54.40;;;;;;5069644;28;20660;-89
2023/03/09 08:19:45;;;;;;;42.43;14.00;;;12.20;54.40;;;;;;5070395;28;20261;-88
2023/03/09 08:22:12;;;;;;;34.83;13.93;;;12.20;54.40;;;;;;5069548;28;20673;-87
2023/03/09 08:24:39;;;;;;;42.43;13.93;;;12.20;54.40;;;;;;5068445;28;20217;-87
2023/03/09 08:27:07;;;;;;;33.97;13.47;;;12.20;54.40;;;;;;5067908;28;20201;-87
2023/03/09 08:29:34;;;;;;;57.43;15.47;;;12.20;54.50;;;;;;5066476;28;20230;-87
2023/03/09 08:32:04;;;;;;;31.43;12.40;;;12.20;54.50;;;;;;5068803;28;20844;-87
2023/03/09 08:34:31;;;;;;;33.47;13.53;;;12.20;54.50;;;;;;5068174;28;20198;-87
2023/03/09 08:36:58;;;;;;;63.03;16.17;;;12.20;54.40;;;;;;5067011;28;20241;-91
2023/03/09 08:39:26;;;;;;;46.83;14.47;;;12.20;54.70;;;;;;5068124;28;20198;-89
2023/03/09 08:41:52;;;;;;;45.27;13.67;;;12.30;54.50;;;;;;5067836;28;20297;-88
2023/03/09 08:44:21;;;;;;;41.07;13.17;;;12.20;54.50;;;;;;5069841;28;20696;-88
2023/03/09 08:46:48;;;;;;;50.13;14.73;;;12.20;54.40;;;;;;5068557;28;20206;-87
2023/03/09 08:49:15;;;;;;;54.77;14.30;;;12.20;54.50;;;;;;5069555;28;20243;-86
2023/03/09 08:51:43;;;;;;;30.40;13.10;;;12.20;54.40;;;;;;5068183;28;20301;-87
2023/03/09 08:54:10;;;;;;;34.40;14.03;;;12.20;54.50;;;;;;5070205;28;20209;-87
2023/03/09 08:56:40;;;;;;;81.20;16.40;;;12.20;55.00;;;;;;5066522;28;20217;-89
2023/03/09 08:59:07;;;;;;;77.73;16.57;;;12.40;54.60;;;;;;5066752;28;20248;-87
2023/03/09 09:01:35;;;;;;;48.73;14.30;;;12.20;54.60;;;;;;5066760;28;20572;-89
2023/03/09 09:04:02;;;;;;;40.50;14.53;;;12.30;54.50;;;;;;5066462;28;20213;-88
2023/03/09 09:06:29;;;;;;;31.50;12.73;;;12.30;54.60;;;;;;5068840;28;20238;-88
2023/03/09 09:08:56;;;;;;;40.97;12.63;;;12.30;54.60;;;;;;5057249;28;20211;-86
2023/03/09 09:11:23;;;;;;;36.43;14.80;;;12.30;54.60;;;;;;5068216;28;20213;-86
2023/03/09 09:13:54;;;;;;;48.77;15.50;;;12.30;54.60;;;;;;5067844;28;20194;-87
2023/03/09 09:16:21;;;;;;;62.37;16.77;;;12.20;54.50;;;;;;5067794;28;20246;-86
2023/03/09 09:18:49;;;;;;;56.10;15.47;;;12.30;54.60;;;;;;5068347;28;20203;-93
2023/03/09 09:21:17;;;;;;;63.73;17.00;;;12.30;54.60;;;;;;5068371;28;20882;-86
2023/03/09 09:23:45;;;;;;;47.97;15.73;;;12.30;54.60;;;;;;5069016;28;20204;-89
2023/03/09 09:26:13;;;;;;;51.60;14.70;;;12.30;54.60;;;;;;5067037;28;20215;-87
2023/03/09 09:28:40;;;;;;;59.47;15.43;;;12.20;54.50;;;;;;5067466;28;20208;-90
2023/03/09 09:31:07;;;;;;;38.07;14.03;;;12.30;54.60;;;;;;5068411;28;20257;-88
2023/03/09 09:33:35;;;;;;;43.03;13.93;;;12.30;54.60;;;;;;5068159;28;20247;-93
2023/03/09 09:36:11;;;;;;;48.90;17.93;;;12.30;54.60;;;;;;5069677;28;20198;-91
2023/03/09 09:38:38;;;;;;;48.60;18.23;;;12.30;54.60;;;;;;5070400;28;20615;-93
2023/03/09 09:41:11;;;;;;;47.97;19.03;;;12.30;54.70;;;;;;5070395;28;20201;-88
2023/03/09 09:43:39;;;;;;;48.87;17.07;;;12.30;54.70;;;;;;5069715;28;20770;-86
2023/03/09 09:46:12;;;;;;;58.20;18.30;;;12.30;54.70;;;;;;5067411;28;20201;-86
2023/03/09 09:48:41;;;;;;;47.13;16.33;;;12.30;54.70;;;;;;5070840;28;20293;-91
2023/03/09 09:51:20;;;;;;;83.33;19.53;;;12.40;54.70;;;;;;5049167;28;20574;-90
2023/03/09 09:53:59;;;;;;;48.33;16.40;;;12.30;54.70;;;;;;5056265;28;20725;-90
2023/03/09 09:56:36;;;;;;;51.83;16.83;;;12.30;54.70;;;;;;5065867;28;20212;-84
2023/03/09 09:59:05;;;;;;;53.63;16.63;;;12.40;54.70;;;;;;5067747;28;20658;-95
2023/03/09 10:01:42;;;;;;;54.90;17.67;;;12.40;54.70;;;;;;5072825;28;20206;-88
2023/03/09 10:04:16;;;;;;;52.77;17.60;;;12.40;54.70;;;;;;5067033;28;20226;-85
2023/03/09 10:06:47;;;;;;;61.27;17.03;;;12.40;54.70;;;;;;5070553;28;20209;-85
2023/03/09 10:09:22;;;;;;;72.40;19.17;;;12.40;54.70;;;;;;5053524;28;20202;-85
2023/03/09 10:11:52;;;;;;;68.47;17.80;;;12.40;54.70;;;;;;5068182;28;20198;-81
2023/03/09 10:14:27;;;;;;;54.63;17.03;;;12.40;54.70;;;;;;5053320;28;20224;-87
2023/03/09 10:17:00;;;;;;;55.03;18.23;;;12.40;54.70;;;;;;5065811;28;20202;-86
2023/03/09 10:19:33;;;;;;;54.50;17.73;;;12.40;54.70;;;;;;5068296;28;20200;-84
2023/03/09 10:22:05;;;;;;;85.13;20.63;;;12.40;55.30;;;;;;5066235;28;20187;-85
2023/03/09 10:24:39;;;;;;;55.10;18.10;;;12.40;54.70;;;;;;5066969;28;20212;-86
2023/03/09 10:27:15;;;;;;;76.57;19.57;;;12.40;54.70;;;;;;5071437;28;20202;-86
2023/03/09 10:29:51;;;;;;;49.67;17.60;;;12.50;54.80;;;;;;5069474;28;20225;-85
2023/03/09 10:32:21;;;;;;;54.27;18.40;;;12.50;54.80;;;;;;5066113;28;20199;-85
2023/03/09 10:35:00;;;;;;;54.13;17.77;;;12.50;54.80;;;;;;5071620;28;20683;-86
2023/03/09 10:37:35;;;;;;;48.13;16.20;;;12.50;54.80;;;;;;5071027;28;20311;-85
2023/03/09 10:40:07;;;;;;;56.63;17.47;;;12.50;54.80;;;;;;5072638;28;20222;-87
2023/03/09 10:42:38;;;;;;;50.93;16.90;;;12.50;54.80;;;;;;5070690;28;20230;-90
2023/03/09 10:45:15;;;;;;;68.53;19.23;;;12.50;54.80;;;;;;5053944;28;20615;-87
2023/03/09 10:48:05;;;;;;;65.10;18.70;;;12.50;54.80;;;;;;5056691;28;20203;-88
2023/03/09 10:50:35;;;;;;;66.40;18.57;;;12.50;54.80;;;;;;5063627;28;20595;-88
2023/03/09 10:53:26;;;;;;;74.87;19.60;;;12.50;54.80;;;;;;5067505;28;20305;-88
2023/03/09 10:55:55;;;;;;;57.27;18.40;;;12.50;54.80;;;;;;5068796;28;20210;-88
2023/03/09 10:58:23;;;;;;;54.70;17.60;;;12.60;54.90;;;;;;5070822;28;20209;-87
2023/03/09 11:00:57;;;;;;;78.67;19.50;;;12.60;54.90;;;;;;5069516;28;20213;-88
2023/03/09 11:03:26;;;;;;;43.73;17.17;;;12.60;54.90;;;;;;5067470;28;20313;-89
2023/03/09 11:05:54;;;;;;;60.87;17.13;;;12.60;54.90;;;;;;5071222;28;20423;-90
2023/03/09 11:08:27;;;;;;;76.57;19.10;;;12.60;54.80;;;;;;5062054;28;20238;-89
2023/03/09 11:11:06;;;;;;;55.00;17.77;;;12.60;54.90;;;;;;5066308;28;20273;-87
2023/03/09 11:13:33;;;;;;;53.83;17.97;;;12.60;54.90;;;;;;5065349;28;20235;-88
2023/03/09 11:16:15;;;;;;;61.83;18.67;;;12.60;54.90;;;;;;5069025;28;20213;-88
2023/03/09 11:18:48;;;;;;;50.47;16.67;;;12.50;54.80;;;;;;5062014;28;20287;-89
2023/03/09 11:21:27;;;;;;;64.03;16.93;;;12.60;54.90;;;;;;5067141;28;20197;-88
2023/03/09 11:23:56;;;;;;;74.23;19.60;;;12.60;54.90;;;;;;5069580;28;20296;-87
2023/03/09 11:26:26;;;;;;;69.40;19.03;;;12.60;54.90;;;;;;5058972;28;20203;-88
2023/03/09 11:29:07;;;;;;;64.40;18.40;;;12.60;55.10;;;;;;5056922;28;20210;-92
2023/03/09 11:31:36;;;;;;;61.40;17.53;;;12.60;55.20;;;;;;5059807;28;20222;-86
2023/03/09 11:34:06;;;;;;;69.27;18.83;;;12.60;55.10;;;;;;5068586;28;20384;-86
2023/03/09 11:36:53;;;;;;;44.40;15.90;;;12.70;55.20;;;;;;5071055;28;20215;-94
2023/03/09 11:39:33;;;;;;;50.93;15.87;;;12.70;55.30;;;;;;5071350;28;20210;-91
2023/03/09 11:42:02;;;;;;;58.27;16.67;;;12.60;55.10;;;;;;5069076;28;20198;-86
2023/03/09 11:44:42;;;;;;;84.27;17.83;;;12.70;55.10;;;;;;5072370;28;20230;-92
2023/03/09 11:47:21;;;;;;;66.87;16.73;;;12.60;55.10;;;;;;5067430;28;20240;-91
2023/03/09 11:49:49;;;;;;;55.30;16.30;;;12.70;55.10;;;;;;5067758;28;20507;-85
2023/03/09 11:52:24;;;;;;;51.27;16.83;;;12.70;55.10;;;;;;5072506;28;20194;-87
2023/03/09 11:54:55;;;;;;;62.90;16.43;;;12.70;55.10;;;;;;5069404;28;20657;-89
2023/03/09 11:57:23;;;;;;;55.20;15.63;;;12.80;55.30;;;;;;5062189;28;20214;-86
2023/03/09 11:59:57;;;;;;;45.70;15.30;;;12.90;55.30;;;;;;5071968;28;20202;-90
2023/03/09 12:02:30;;;;;;;51.67;15.03;;;12.80;55.30;;;;;;5071493;28;20260;-85
2023/03/09 12:04:57;;;;;;;46.80;14.90;;;12.80;55.20;;;;;;5059807;28;20235;-84
2023/03/09 12:07:32;;;;;;;56.77;15.57;;;12.80;55.20;;;;;;5068472;28;20244;-83
2023/03/09 12:10:06;;;;;;;75.97;17.77;;;12.80;55.20;;;;;;5066969;28;20213;-91
2023/03/09 12:12:39;;;;;;;53.37;15.77;;;12.80;55.20;;;;;;5068857;28;20286;-85
2023/03/09 12:15:16;;;;;;;50.47;15.37;;;13.00;55.40;;;;;;5052522;28;20204;-92
2023/03/09 12:17:49;;;;;;;61.87;16.23;;;12.90;55.30;;;;;;5066340;28;20217;-86
2023/03/09 12:20:27;;;;;;;61.20;14.30;;;12.90;55.30;;;;;;5069816;28;20210;-84
2023/03/09 12:22:56;;;;;;;58.27;15.50;;;13.00;55.30;;;;;;5068641;28;20206;-89
2023/03/09 12:25:26;;;;;;;68.10;15.47;;;12.90;55.20;;;;;;5069686;28;20203;-86
2023/03/09 12:27:55;;;;;;;60.67;15.90;;;12.90;55.20;;;;;;5068036;28;20199;-95
2023/03/09 12:30:25;;;;;;;45.83;14.57;;;12.90;55.20;;;;;;5064179;28;20237;-85
2023/03/09 12:32:56;;;;;;;68.97;16.07;;;12.90;55.20;;;;;;5062401;28;20227;-86
2023/03/09 12:35:56;;;;;;;64.73;15.30;;;12.90;55.20;;;;;;5067774;28;20206;-85
2023/03/09 12:38:26;;;;;;;43.93;14.17;;;13.00;55.30;;;;;;5053477;28;20210;-85